createdAt,value
2023-03-11T00:04:10.587Z,3.57
2023-03-11T00:14:13.073Z,3.48
2023-03-11T00:24:16.830Z,3.64
2023-03-11T00:34:19.417Z,3.64
2023-03-11T00:44:23.327Z,3.60
2023-03-11T00:54:25.819Z,3.69
2023-03-11T01:04:29.681Z,3.59
2023-03-11T01:14:32.126Z,3.73
2023-03-11T01:24:35.916Z,3.72
2023-03-11T01:34:38.416Z,3.65
2023-03-11T01:44:42.199Z,3.73
2023-03-11T01:54:44.756Z,3.60
2023-03-11T02:04:49.108Z,3.52
2023-03-11T02:14:53.915Z,3.58
2023-03-11T02:25:00.908Z,3.66
2023-03-11T02:35:05.127Z,3.44
2023-03-11T02:45:09.498Z,3.31
2023-03-11T02:55:14.509Z,3.14
2023-03-11T03:05:17.102Z,3.13
2023-03-11T03:15:21.512Z,3.15
2023-03-11T03:25:24.056Z,2.82
2023-03-11T03:35:27.923Z,2.83
2023-03-11T03:45:30.403Z,2.69
2023-03-11T03:55:34.253Z,2.54
2023-03-11T04:05:36.717Z,2.32
2023-03-11T04:15:40.594Z,2.33
2023-03-11T04:25:43.127Z,2.17
2023-03-11T04:35:47.015Z,2.21
2023-03-11T04:45:51.126Z,2.12
2023-03-11T04:55:54.940Z,1.98
2023-03-11T05:05:57.534Z,1.92
2023-03-11T05:16:01.383Z,2.06
2023-03-11T05:26:03.895Z,1.96
2023-03-11T05:36:09.274Z,2.04
2023-03-11T05:46:11.911Z,1.99
2023-03-11T05:56:15.856Z,2.01
2023-03-11T06:06:18.539Z,1.91
2023-03-11T06:16:22.553Z,2.07
2023-03-11T06:26:25.390Z,2.06
2023-03-11T06:36:29.162Z,2.14
2023-03-11T06:46:31.640Z,2.08
2023-03-11T06:56:35.539Z,2.34
2023-03-11T07:06:38.007Z,2.50
2023-03-11T07:16:41.901Z,2.63
2023-03-11T07:26:44.722Z,2.65
2023-03-11T07:36:48.764Z,2.49
2023-03-11T07:46:51.371Z,2.60
2023-03-11T07:56:55.205Z,2.51
2023-03-11T08:06:58.008Z,2.77
2023-03-11T08:17:01.825Z,3.00
2023-03-11T08:27:04.404Z,3.04
2023-03-11T08:37:08.246Z,2.84
2023-03-11T08:47:10.847Z,3.18
2023-03-11T08:57:14.709Z,3.45
2023-03-11T09:07:17.801Z,3.62
2023-03-11T09:17:21.750Z,3.86
2023-03-11T09:27:24.395Z,4.07
2023-03-11T09:37:30.153Z,4.16
2023-03-11T09:47:38.015Z,4.64
2023-03-11T09:57:46.258Z,4.63
2023-03-11T10:07:53.777Z,4.65
2023-03-11T10:18:11.753Z,5.14
2023-03-11T10:28:15.546Z,5.04
2023-03-11T10:38:20.901Z,5.19
2023-03-11T10:48:23.455Z,4.79
2023-03-11T10:58:28.423Z,5.78
2023-03-11T11:08:31.095Z,6.33
2023-03-11T11:18:35.587Z,6.86
2023-03-11T11:28:38.245Z,7.48
2023-03-11T11:38:42.229Z,7.88
2023-03-11T11:48:48.319Z,8.06
2023-03-11T11:58:52.905Z,8.61
2023-03-11T12:09:01.620Z,9.34
2023-03-11T12:19:11.348Z,9.49
2023-03-11T12:29:21.468Z,9.72
2023-03-11T12:39:28.834Z,11.02
2023-03-11T12:49:32.023Z,11.58
2023-03-11T12:59:56.794Z,12.04
2023-03-11T13:10:04.319Z,10.40
2023-03-11T13:20:29.811Z,11.29
2023-03-11T13:30:36.532Z,12.50
2023-03-11T13:40:40.686Z,13.28
2023-03-11T13:50:48.024Z,12.91
2023-03-11T14:00:51.742Z,15.15
2023-03-11T14:10:56.298Z,15.84
2023-03-11T14:20:59.132Z,14.78
2023-03-11T14:31:03.761Z,14.21
2023-03-11T14:41:07.508Z,14.10
2023-03-11T14:51:13.225Z,13.12
2023-03-11T15:01:18.690Z,11.92
2023-03-11T15:11:25.298Z,9.95
2023-03-11T15:21:28.233Z,9.22
2023-03-11T15:31:33.632Z,9.47
2023-03-11T15:41:36.117Z,9.45
2023-03-11T15:51:40.947Z,8.98
2023-03-11T16:01:43.458Z,8.66
2023-03-11T16:11:47.253Z,8.42
2023-03-11T16:21:50.570Z,8.33
2023-03-11T16:31:55.339Z,8.02
2023-03-11T16:41:57.888Z,6.73
2023-03-11T16:52:01.780Z,6.99
2023-03-11T17:02:04.362Z,6.72
2023-03-11T17:12:08.968Z,6.64
2023-03-11T17:22:11.453Z,6.39
2023-03-11T17:32:17.578Z,5.98
2023-03-11T17:42:20.169Z,5.51
2023-03-11T17:52:23.959Z,5.70
2023-03-11T18:02:26.398Z,5.56
2023-03-11T18:12:30.235Z,5.37
2023-03-11T18:22:35.202Z,5.23
2023-03-11T18:32:39.243Z,5.16
2023-03-11T18:42:41.681Z,5.00
2023-03-11T18:52:45.526Z,4.92
2023-03-11T19:02:50.811Z,4.88
2023-03-11T19:12:54.694Z,4.92
2023-03-11T19:22:57.203Z,4.76
2023-03-11T19:33:01.196Z,4.64
2023-03-11T19:43:04.796Z,4.50
2023-03-11T19:53:09.814Z,4.42
2023-03-11T20:03:12.908Z,4.32
2023-03-11T20:13:17.857Z,4.25
2023-03-11T20:23:20.786Z,4.18
2023-03-11T20:33:24.636Z,4.18
2023-03-11T20:43:27.341Z,4.02
2023-03-11T20:53:31.650Z,3.95
2023-03-11T21:03:34.312Z,3.92
2023-03-11T21:13:38.290Z,3.74
2023-03-11T21:23:41.274Z,3.61
2023-03-11T21:33:45.636Z,3.49
2023-03-11T21:43:49.960Z,3.24
2023-03-11T21:53:53.980Z,3.23
2023-03-11T22:03:56.712Z,3.19
2023-03-11T22:14:01.501Z,3.07
2023-03-11T22:24:05.294Z,2.94
2023-03-11T22:34:09.148Z,2.88
2023-03-11T22:44:11.689Z,2.83
2023-03-11T22:54:15.635Z,2.72
2023-03-11T23:04:19.361Z,2.71
2023-03-11T23:14:30.672Z,2.71
2023-03-11T23:24:36.380Z,2.64
2023-03-11T23:34:40.177Z,2.61
2023-03-11T23:44:42.698Z,2.58
2023-03-11T23:54:46.469Z,2.61
